sensor_id;sensor_type;location;lat;lon;timestamp;temperature;humidity
18932;DHT22;9598;50.954;3.112;2023-07-08T00:03:06;24.50;99.90
18932;DHT22;9598;50.954;3.112;2023-07-08T00:08:09;24.40;99.90
18932;DHT22;9598;50.954;3.112;2023-07-08T00:13:14;24.30;99.90
18932;DHT22;9598;50.954;3.112;2023-07-08T00:18:17;24.30;99.90
18932;DHT22;9598;50.954;3.112;2023-07-08T00:23:19;24.20;99.90
18932;DHT22;9598;50.954;3.112;2023-07-08T00:28:23;24.20;99.90
18932;DHT22;9598;50.954;3.112;2023-07-08T00:33:25;24.10;99.90
18932;DHT22;9598;50.954;3.112;2023-07-08T00:38:28;24.10;99.90
18932;DHT22;9598;50.954;3.112;2023-07-08T00:43:36;24.00;99.90
18932;DHT22;9598;50.954;3.112;2023-07-08T00:48:40;24.00;99.90
18932;DHT22;9598;50.954;3.112;2023-07-08T00:53:42;23.80;99.90
18932;DHT22;9598;50.954;3.112;2023-07-08T00:58:48;23.80;99.90
18932;DHT22;9598;50.954;3.112;2023-07-08T01:03:54;23.70;99.90
18932;DHT22;9598;50.954;3.112;2023-07-08T01:08:59;23.60;99.90
18932;DHT22;9598;50.954;3.112;2023-07-08T01:14:05;23.60;99.90
18932;DHT22;9598;50.954;3.112;2023-07-08T01:19:14;23.50;99.90
18932;DHT22;9598;50.954;3.112;2023-07-08T01:24:19;23.50;99.90
18932;DHT22;9598;50.954;3.112;2023-07-08T01:29:21;23.40;99.90
18932;DHT22;9598;50.954;3.112;2023-07-08T01:34:23;23.40;99.90
18932;DHT22;9598;50.954;3.112;2023-07-08T01:39:28;23.40;99.90
18932;DHT22;9598;50.954;3.112;2023-07-08T01:44:33;23.30;99.90
18932;DHT22;9598;50.954;3.112;2023-07-08T01:49:37;23.20;99.90
18932;DHT22;9598;50.954;3.112;2023-07-08T01:54:42;23.10;99.90
18932;DHT22;9598;50.954;3.112;2023-07-08T01:59:44;23.10;99.90
18932;DHT22;9598;50.954;3.112;2023-07-08T02:04:46;23.00;99.90
18932;DHT22;9598;50.954;3.112;2023-07-08T02:09:49;23.00;99.90
18932;DHT22;9598;50.954;3.112;2023-07-08T02:14:51;22.90;99.90
18932;DHT22;9598;50.954;3.112;2023-07-08T02:19:53;22.90;99.90
18932;DHT22;9598;50.954;3.112;2023-07-08T02:24:57;22.80;99.90
18932;DHT22;9598;50.954;3.112;2023-07-08T02:29:59;22.80;99.90
18932;DHT22;9598;50.954;3.112;2023-07-08T02:35:01;22.80;99.90
18932;DHT22;9598;50.954;3.112;2023-07-08T02:40:06;22.70;99.90
18932;DHT22;9598;50.954;3.112;2023-07-08T02:45:10;22.70;99.90
18932;DHT22;9598;50.954;3.112;2023-07-08T02:50:13;22.60;99.90
18932;DHT22;9598;50.954;3.112;2023-07-08T02:55:16;22.60;99.90
18932;DHT22;9598;50.954;3.112;2023-07-08T03:00:18;22.60;99.90
18932;DHT22;9598;50.954;3.112;2023-07-08T03:05:20;22.60;99.90
18932;DHT22;9598;50.954;3.112;2023-07-08T03:10:24;22.50;99.90
18932;DHT22;9598;50.954;3.112;2023-07-08T03:15:26;22.40;99.90
18932;DHT22;9598;50.954;3.112;2023-07-08T03:20:28;22.30;99.90
18932;DHT22;9598;50.954;3.112;2023-07-08T03:25:35;22.20;99.90
18932;DHT22;9598;50.954;3.112;2023-07-08T03:30:38;22.10;99.90
18932;DHT22;9598;50.954;3.112;2023-07-08T03:35:41;22.10;99.90
18932;DHT22;9598;50.954;3.112;2023-07-08T03:40:45;22.10;99.90
18932;DHT22;9598;50.954;3.112;2023-07-08T03:45:47;22.10;99.90
18932;DHT22;9598;50.954;3.112;2023-07-08T03:50:51;22.10;99.90
18932;DHT22;9598;50.954;3.112;2023-07-08T03:55:54;22.00;99.90
18932;DHT22;9598;50.954;3.112;2023-07-08T04:00:57;21.90;99.90
18932;DHT22;9598;50.954;3.112;2023-07-08T04:05:59;21.80;99.90
18932;DHT22;9598;50.954;3.112;2023-07-08T04:11:02;21.80;99.90
18932;DHT22;9598;50.954;3.112;2023-07-08T04:16:05;21.80;99.90
18932;DHT22;9598;50.954;3.112;2023-07-08T04:21:08;21.80;99.90
18932;DHT22;9598;50.954;3.112;2023-07-08T04:26:11;21.80;99.90
18932;DHT22;9598;50.954;3.112;2023-07-08T04:31:13;21.80;99.90
18932;DHT22;9598;50.954;3.112;2023-07-08T04:36:15;21.80;99.90
18932;DHT22;9598;50.954;3.112;2023-07-08T04:41:19;21.80;99.90
18932;DHT22;9598;50.954;3.112;2023-07-08T04:46:27;21.70;99.90
18932;DHT22;9598;50.954;3.112;2023-07-08T04:51:33;21.70;99.90
18932;DHT22;9598;50.954;3.112;2023-07-08T04:56:38;21.70;99.90
18932;DHT22;9598;50.954;3.112;2023-07-08T05:01:41;21.70;99.90
18932;DHT22;9598;50.954;3.112;2023-07-08T05:06:43;21.80;99.90
18932;DHT22;9598;50.954;3.112;2023-07-08T05:11:47;21.90;99.90
18932;DHT22;9598;50.954;3.112;2023-07-08T05:16:49;21.90;99.90
18932;DHT22;9598;50.954;3.112;2023-07-08T05:21:51;21.80;99.90
18932;DHT22;9598;50.954;3.112;2023-07-08T05:26:55;21.80;99.90
18932;DHT22;9598;50.954;3.112;2023-07-08T05:31:59;21.90;99.90
18932;DHT22;9598;50.954;3.112;2023-07-08T05:37:01;21.90;99.90
18932;DHT22;9598;50.954;3.112;2023-07-08T05:42:06;22.00;99.90
18932;DHT22;9598;50.954;3.112;2023-07-08T05:47:08;22.20;99.90
18932;DHT22;9598;50.954;3.112;2023-07-08T05:52:10;22.40;99.90
18932;DHT22;9598;50.954;3.112;2023-07-08T05:57:13;22.60;99.90
18932;DHT22;9598;50.954;3.112;2023-07-08T06:02:16;22.80;99.90
18932;DHT22;9598;50.954;3.112;2023-07-08T06:07:20;23.00;99.90
18932;DHT22;9598;50.954;3.112;2023-07-08T06:12:23;23.20;99.90
18932;DHT22;9598;50.954;3.112;2023-07-08T06:17:25;23.40;99.90
18932;DHT22;9598;50.954;3.112;2023-07-08T06:22:27;23.60;99.90
18932;DHT22;9598;50.954;3.112;2023-07-08T06:27:31;23.90;99.90
18932;DHT22;9598;50.954;3.112;2023-07-08T06:32:34;24.20;99.90
18932;DHT22;9598;50.954;3.112;2023-07-08T06:37:36;24.40;99.90
18932;DHT22;9598;50.954;3.112;2023-07-08T06:42:39;24.60;99.90
18932;DHT22;9598;50.954;3.112;2023-07-08T06:48:08;24.80;99.90
18932;DHT22;9598;50.954;3.112;2023-07-08T06:53:10;25.00;99.90
18932;DHT22;9598;50.954;3.112;2023-07-08T06:58:13;25.10;99.90
18932;DHT22;9598;50.954;3.112;2023-07-08T07:03:15;25.30;99.90
18932;DHT22;9598;50.954;3.112;2023-07-08T07:08:17;25.50;99.90
18932;DHT22;9598;50.954;3.112;2023-07-08T07:13:21;25.70;99.90
18932;DHT22;9598;50.954;3.112;2023-07-08T07:18:23;26.00;99.90
18932;DHT22;9598;50.954;3.112;2023-07-08T07:23:25;26.20;99.90
18932;DHT22;9598;50.954;3.112;2023-07-08T07:28:29;26.50;99.90
18932;DHT22;9598;50.954;3.112;2023-07-08T07:33:31;26.70;99.90
18932;DHT22;9598;50.954;3.112;2023-07-08T07:38:33;26.90;99.90
18932;DHT22;9598;50.954;3.112;2023-07-08T07:43:37;27.10;99.90
18932;DHT22;9598;50.954;3.112;2023-07-08T07:48:39;27.20;99.90
18932;DHT22;9598;50.954;3.112;2023-07-08T07:53:41;27.50;99.90
18932;DHT22;9598;50.954;3.112;2023-07-08T07:58:45;27.70;99.90
18932;DHT22;9598;50.954;3.112;2023-07-08T08:03:48;27.90;99.90
18932;DHT22;9598;50.954;3.112;2023-07-08T08:08:52;28.20;99.90
18932;DHT22;9598;50.954;3.112;2023-07-08T08:13:56;28.40;99.90
18932;DHT22;9598;50.954;3.112;2023-07-08T08:19:01;28.70;99.90
18932;DHT22;9598;50.954;3.112;2023-07-08T08:24:03;28.80;99.90
18932;DHT22;9598;50.954;3.112;2023-07-08T08:29:07;28.90;99.90
18932;DHT22;9598;50.954;3.112;2023-07-08T08:34:09;29.10;99.90
18932;DHT22;9598;50.954;3.112;2023-07-08T08:39:11;29.30;99.90
18932;DHT22;9598;50.954;3.112;2023-07-08T08:44:17;29.40;99.90
18932;DHT22;9598;50.954;3.112;2023-07-08T08:49:25;29.50;99.90
18932;DHT22;9598;50.954;3.112;2023-07-08T08:54:29;29.70;99.90
18932;DHT22;9598;50.954;3.112;2023-07-08T08:59:45;29.90;99.90
18932;DHT22;9598;50.954;3.112;2023-07-08T09:04:51;30.00;99.90
18932;DHT22;9598;50.954;3.112;2023-07-08T09:10:00;30.20;99.90
18932;DHT22;9598;50.954;3.112;2023-07-08T09:15:12;30.30;99.90
18932;DHT22;9598;50.954;3.112;2023-07-08T09:20:21;30.20;99.90
18932;DHT22;9598;50.954;3.112;2023-07-08T09:25:27;30.10;99.90
18932;DHT22;9598;50.954;3.112;2023-07-08T09:30:33;30.10;99.90
18932;DHT22;9598;50.954;3.112;2023-07-08T09:35:40;30.20;99.90
18932;DHT22;9598;50.954;3.112;2023-07-08T09:40:47;30.40;99.90
18932;DHT22;9598;50.954;3.112;2023-07-08T09:45:51;30.70;99.90
18932;DHT22;9598;50.954;3.112;2023-07-08T09:50:56;31.00;99.90
18932;DHT22;9598;50.954;3.112;2023-07-08T09:55:59;31.20;99.90
18932;DHT22;9598;50.954;3.112;2023-07-08T10:01:10;31.40;99.90
18932;DHT22;9598;50.954;3.112;2023-07-08T10:06:17;31.80;99.90
18932;DHT22;9598;50.954;3.112;2023-07-08T10:11:23;32.20;99.10
18932;DHT22;9598;50.954;3.112;2023-07-08T10:16:29;32.40;97.50
18932;DHT22;9598;50.954;3.112;2023-07-08T10:21:37;32.50;96.80
18932;DHT22;9598;50.954;3.112;2023-07-08T10:26:42;32.60;97.30
18932;DHT22;9598;50.954;3.112;2023-07-08T10:31:52;32.70;95.30
18932;DHT22;9598;50.954;3.112;2023-07-08T10:37:04;32.90;94.60
18932;DHT22;9598;50.954;3.112;2023-07-08T10:42:19;33.10;92.80
18932;DHT22;9598;50.954;3.112;2023-07-08T10:47:34;33.10;92.00
18932;DHT22;9598;50.954;3.112;2023-07-08T10:52:50;33.20;90.40
18932;DHT22;9598;50.954;3.112;2023-07-08T10:58:18;33.30;90.20
18932;DHT22;9598;50.954;3.112;2023-07-08T11:03:56;33.50;88.40
18932;DHT22;9598;50.954;3.112;2023-07-08T11:09:02;33.60;86.80
18932;DHT22;9598;50.954;3.112;2023-07-08T11:14:11;33.70;87.40
18932;DHT22;9598;50.954;3.112;2023-07-08T11:19:21;33.70;87.20
18932;DHT22;9598;50.954;3.112;2023-07-08T11:24:31;33.50;86.50
18932;DHT22;9598;50.954;3.112;2023-07-08T11:29:38;33.30;88.80
18932;DHT22;9598;50.954;3.112;2023-07-08T11:34:46;33.30;89.60
18932;DHT22;9598;50.954;3.112;2023-07-08T11:39:54;33.40;86.40
18932;DHT22;9598;50.954;3.112;2023-07-08T11:44:59;33.30;88.20
18932;DHT22;9598;50.954;3.112;2023-07-08T11:50:05;33.20;90.80
18932;DHT22;9598;50.954;3.112;2023-07-08T11:55:20;33.20;92.20
18932;DHT22;9598;50.954;3.112;2023-07-08T12:00:24;33.20;91.50
18932;DHT22;9598;50.954;3.112;2023-07-08T12:05:32;33.20;92.10
18932;DHT22;9598;50.954;3.112;2023-07-08T12:10:38;33.20;91.90
18932;DHT22;9598;50.954;3.112;2023-07-08T12:15:41;33.30;92.70
18932;DHT22;9598;50.954;3.112;2023-07-08T12:20:47;33.40;93.20
18932;DHT22;9598;50.954;3.112;2023-07-08T12:25:51;33.40;88.00
18932;DHT22;9598;50.954;3.112;2023-07-08T12:30:53;33.30;92.40
18932;DHT22;9598;50.954;3.112;2023-07-08T12:36:00;33.10;91.70
18932;DHT22;9598;50.954;3.112;2023-07-08T12:41:09;32.90;91.80
18932;DHT22;9598;50.954;3.112;2023-07-08T12:46:13;32.90;92.40
18932;DHT22;9598;50.954;3.112;2023-07-08T12:51:19;33.00;92.30
18932;DHT22;9598;50.954;3.112;2023-07-08T12:56:23;33.00;92.60
18932;DHT22;9598;50.954;3.112;2023-07-08T13:01:29;33.00;93.50
18932;DHT22;9598;50.954;3.112;2023-07-08T13:06:34;33.10;96.10
18932;DHT22;9598;50.954;3.112;2023-07-08T13:11:37;32.90;96.00
18932;DHT22;9598;50.954;3.112;2023-07-08T13:16:39;32.80;95.80
18932;DHT22;9598;50.954;3.112;2023-07-08T13:21:43;32.80;97.00
18932;DHT22;9598;50.954;3.112;2023-07-08T13:26:48;32.60;96.70
18932;DHT22;9598;50.954;3.112;2023-07-08T13:31:56;32.40;97.50
18932;DHT22;9598;50.954;3.112;2023-07-08T13:36:59;32.50;97.20
18932;DHT22;9598;50.954;3.112;2023-07-08T13:42:03;32.40;96.80
18932;DHT22;9598;50.954;3.112;2023-07-08T13:47:20;32.30;97.10
18932;DHT22;9598;50.954;3.112;2023-07-08T13:52:24;32.20;97.10
18932;DHT22;9598;50.954;3.112;2023-07-08T13:57:31;32.00;97.10
18932;DHT22;9598;50.954;3.112;2023-07-08T14:02:34;31.80;97.30
18932;DHT22;9598;50.954;3.112;2023-07-08T14:07:38;31.70;96.50
18932;DHT22;9598;50.954;3.112;2023-07-08T14:12:40;31.60;97.00
18932;DHT22;9598;50.954;3.112;2023-07-08T14:17:42;31.70;97.30
18932;DHT22;9598;50.954;3.112;2023-07-08T14:22:46;31.80;96.40
18932;DHT22;9598;50.954;3.112;2023-07-08T14:27:48;32.00;98.40
18932;DHT22;9598;50.954;3.112;2023-07-08T14:32:50;32.10;97.30
18932;DHT22;9598;50.954;3.112;2023-07-08T14:37:53;32.20;96.80
18932;DHT22;9598;50.954;3.112;2023-07-08T14:42:59;32.30;96.80
18932;DHT22;9598;50.954;3.112;2023-07-08T14:48:02;32.40;96.40
18932;DHT22;9598;50.954;3.112;2023-07-08T14:53:08;32.30;94.80
18932;DHT22;9598;50.954;3.112;2023-07-08T14:58:17;32.20;95.10
18932;DHT22;9598;50.954;3.112;2023-07-08T15:03:22;32.20;94.10
18932;DHT22;9598;50.954;3.112;2023-07-08T15:08:25;32.30;94.20
18932;DHT22;9598;50.954;3.112;2023-07-08T15:13:29;32.30;93.20
18932;DHT22;9598;50.954;3.112;2023-07-08T15:18:31;32.40;94.40
18932;DHT22;9598;50.954;3.112;2023-07-08T15:23:35;32.30;93.80
18932;DHT22;9598;50.954;3.112;2023-07-08T15:28:40;32.10;95.30
18932;DHT22;9598;50.954;3.112;2023-07-08T15:33:48;31.90;96.10
18932;DHT22;9598;50.954;3.112;2023-07-08T15:38:51;31.80;94.90
18932;DHT22;9598;50.954;3.112;2023-07-08T15:43:55;31.70;94.30
18932;DHT22;9598;50.954;3.112;2023-07-08T15:48:57;31.70;94.50
18932;DHT22;9598;50.954;3.112;2023-07-08T15:54:00;31.70;95.10
18932;DHT22;9598;50.954;3.112;2023-07-08T15:59:03;31.60;95.50
18932;DHT22;9598;50.954;3.112;2023-07-08T16:04:07;31.50;95.20
18932;DHT22;9598;50.954;3.112;2023-07-08T16:09:14;31.50;95.00
18932;DHT22;9598;50.954;3.112;2023-07-08T16:14:18;31.50;95.40
18932;DHT22;9598;50.954;3.112;2023-07-08T16:19:20;31.50;96.00
18932;DHT22;9598;50.954;3.112;2023-07-08T16:24:23;31.50;96.20
18932;DHT22;9598;50.954;3.112;2023-07-08T16:29:27;31.40;95.90
18932;DHT22;9598;50.954;3.112;2023-07-08T16:34:29;31.30;97.30
18932;DHT22;9598;50.954;3.112;2023-07-08T16:39:32;31.30;95.90
18932;DHT22;9598;50.954;3.112;2023-07-08T16:44:34;31.40;97.60
18932;DHT22;9598;50.954;3.112;2023-07-08T16:49:37;31.30;98.10
18932;DHT22;9598;50.954;3.112;2023-07-08T16:54:40;31.20;98.60
18932;DHT22;9598;50.954;3.112;2023-07-08T16:59:42;31.10;98.80
18932;DHT22;9598;50.954;3.112;2023-07-08T17:04:45;31.10;99.20
18932;DHT22;9598;50.954;3.112;2023-07-08T17:09:49;31.00;98.90
18932;DHT22;9598;50.954;3.112;2023-07-08T17:14:51;31.00;99.00
18932;DHT22;9598;50.954;3.112;2023-07-08T17:19:54;31.00;99.90
18932;DHT22;9598;50.954;3.112;2023-07-08T17:24:58;30.90;99.90
18932;DHT22;9598;50.954;3.112;2023-07-08T17:30:00;30.80;99.90
18932;DHT22;9598;50.954;3.112;2023-07-08T17:35:03;30.80;99.90
18932;DHT22;9598;50.954;3.112;2023-07-08T17:40:12;30.80;99.90
18932;DHT22;9598;50.954;3.112;2023-07-08T17:45:17;30.70;99.90
18932;DHT22;9598;50.954;3.112;2023-07-08T17:50:21;30.70;99.90
18932;DHT22;9598;50.954;3.112;2023-07-08T17:55:26;30.70;99.90
18932;DHT22;9598;50.954;3.112;2023-07-08T18:00:28;30.60;99.90
18932;DHT22;9598;50.954;3.112;2023-07-08T18:05:31;30.60;99.90
18932;DHT22;9598;50.954;3.112;2023-07-08T18:10:35;30.60;99.90
18932;DHT22;9598;50.954;3.112;2023-07-08T18:15:40;30.50;99.90
18932;DHT22;9598;50.954;3.112;2023-07-08T18:20:48;30.40;99.90
18932;DHT22;9598;50.954;3.112;2023-07-08T18:25:52;30.20;99.90
18932;DHT22;9598;50.954;3.112;2023-07-08T18:30:54;30.00;99.90
18932;DHT22;9598;50.954;3.112;2023-07-08T18:35:56;29.80;99.90
18932;DHT22;9598;50.954;3.112;2023-07-08T18:41:00;29.50;99.90
18932;DHT22;9598;50.954;3.112;2023-07-08T18:46:02;29.40;99.90
18932;DHT22;9598;50.954;3.112;2023-07-08T18:51:11;29.40;99.90
18932;DHT22;9598;50.954;3.112;2023-07-08T18:56:17;29.30;99.90
18932;DHT22;9598;50.954;3.112;2023-07-08T19:01:22;29.30;99.90
18932;DHT22;9598;50.954;3.112;2023-07-08T19:06:25;29.20;99.90
18932;DHT22;9598;50.954;3.112;2023-07-08T19:11:29;29.10;99.90
18932;DHT22;9598;50.954;3.112;2023-07-08T19:16:31;29.00;99.90
18932;DHT22;9598;50.954;3.112;2023-07-08T19:21:34;29.00;99.90
18932;DHT22;9598;50.954;3.112;2023-07-08T19:26:37;28.90;99.90
18932;DHT22;9598;50.954;3.112;2023-07-08T19:31:40;28.80;99.90
18932;DHT22;9598;50.954;3.112;2023-07-08T19:36:46;28.60;99.90
18932;DHT22;9598;50.954;3.112;2023-07-08T19:41:50;28.60;99.90
18932;DHT22;9598;50.954;3.112;2023-07-08T19:46:54;28.50;99.90
18932;DHT22;9598;50.954;3.112;2023-07-08T19:51:56;28.40;99.90
18932;DHT22;9598;50.954;3.112;2023-07-08T19:57:01;28.30;99.90
18932;DHT22;9598;50.954;3.112;2023-07-08T20:02:12;28.30;99.90
18932;DHT22;9598;50.954;3.112;2023-07-08T20:07:14;28.30;99.90
18932;DHT22;9598;50.954;3.112;2023-07-08T20:12:18;28.20;99.90
18932;DHT22;9598;50.954;3.112;2023-07-08T20:17:20;28.20;99.90
18932;DHT22;9598;50.954;3.112;2023-07-08T20:22:22;28.20;99.90
18932;DHT22;9598;50.954;3.112;2023-07-08T20:27:26;28.00;99.90
18932;DHT22;9598;50.954;3.112;2023-07-08T20:32:29;28.00;99.90
18932;DHT22;9598;50.954;3.112;2023-07-08T20:37:32;28.00;99.90
18932;DHT22;9598;50.954;3.112;2023-07-08T20:42:35;27.90;99.90
18932;DHT22;9598;50.954;3.112;2023-07-08T20:47:39;27.80;99.90
18932;DHT22;9598;50.954;3.112;2023-07-08T20:52:44;27.70;99.90
18932;DHT22;9598;50.954;3.112;2023-07-08T20:57:49;27.70;99.90
18932;DHT22;9598;50.954;3.112;2023-07-08T21:02:51;27.60;99.90
18932;DHT22;9598;50.954;3.112;2023-07-08T21:07:54;27.40;99.90
18932;DHT22;9598;50.954;3.112;2023-07-08T21:12:58;27.30;99.90
18932;DHT22;9598;50.954;3.112;2023-07-08T21:18:01;27.20;99.90
18932;DHT22;9598;50.954;3.112;2023-07-08T21:23:06;27.20;99.90
18932;DHT22;9598;50.954;3.112;2023-07-08T21:28:22;27.10;99.90
18932;DHT22;9598;50.954;3.112;2023-07-08T21:33:26;27.10;99.90
18932;DHT22;9598;50.954;3.112;2023-07-08T21:38:28;27.00;99.90
18932;DHT22;9598;50.954;3.112;2023-07-08T21:43:31;26.80;99.90
18932;DHT22;9598;50.954;3.112;2023-07-08T21:48:33;26.80;99.90
18932;DHT22;9598;50.954;3.112;2023-07-08T21:53:36;26.70;99.90
18932;DHT22;9598;50.954;3.112;2023-07-08T21:58:40;26.60;99.90
18932;DHT22;9598;50.954;3.112;2023-07-08T22:03:42;26.60;99.90
18932;DHT22;9598;50.954;3.112;2023-07-08T22:08:44;26.50;99.90
18932;DHT22;9598;50.954;3.112;2023-07-08T22:13:48;26.40;99.90
18932;DHT22;9598;50.954;3.112;2023-07-08T22:18:50;26.30;99.90
18932;DHT22;9598;50.954;3.112;2023-07-08T22:23:54;26.20;99.90
18932;DHT22;9598;50.954;3.112;2023-07-08T22:28:58;26.20;99.90
18932;DHT22;9598;50.954;3.112;2023-07-08T22:34:00;26.20;99.90
18932;DHT22;9598;50.954;3.112;2023-07-08T22:39:04;26.20;99.90
18932;DHT22;9598;50.954;3.112;2023-07-08T22:44:09;26.10;99.90
18932;DHT22;9598;50.954;3.112;2023-07-08T22:49:11;25.90;99.90
18932;DHT22;9598;50.954;3.112;2023-07-08T22:54:24;25.60;99.90
18932;DHT22;9598;50.954;3.112;2023-07-08T22:59:30;25.30;99.90
18932;DHT22;9598;50.954;3.112;2023-07-08T23:04:32;25.10;99.90
18932;DHT22;9598;50.954;3.112;2023-07-08T23:09:34;25.00;99.90
18932;DHT22;9598;50.954;3.112;2023-07-08T23:14:37;24.90;99.90
18932;DHT22;9598;50.954;3.112;2023-07-08T23:19:39;24.90;99.90
18932;DHT22;9598;50.954;3.112;2023-07-08T23:24:41;24.80;99.90
18932;DHT22;9598;50.954;3.112;2023-07-08T23:29:44;24.70;99.90
18932;DHT22;9598;50.954;3.112;2023-07-08T23:34:47;24.60;99.90
18932;DHT22;9598;50.954;3.112;2023-07-08T23:39:49;24.50;99.90
18932;DHT22;9598;50.954;3.112;2023-07-08T23:44:52;24.40;99.90
18932;DHT22;9598;50.954;3.112;2023-07-08T23:49:55;24.30;99.90
18932;DHT22;9598;50.954;3.112;2023-07-08T23:54:57;24.30;99.90
